createdAt,value
2022-11-29T00:05:10.783Z,16.57
2022-11-29T00:11:10.470Z,16.50
2022-11-29T00:17:04.851Z,17.90
2022-11-29T00:22:58.377Z,16.90
2022-11-29T00:28:53.767Z,17.90
2022-11-29T00:34:47.518Z,18.27
2022-11-29T00:40:40.976Z,18.70
2022-11-29T00:46:35.899Z,18.40
2022-11-29T00:52:29.474Z,16.53
2022-11-29T00:58:23.304Z,18.53
2022-11-29T01:04:18.260Z,18.00
2022-11-29T01:10:12.113Z,17.47
2022-11-29T01:16:06.534Z,20.07
2022-11-29T01:22:01.563Z,20.07
2022-11-29T01:27:56.056Z,19.23
2022-11-29T01:33:49.613Z,19.57
2022-11-29T01:39:44.104Z,18.07
2022-11-29T01:45:40.212Z,20.20
2022-11-29T01:51:36.621Z,18.60
2022-11-29T01:57:34.038Z,19.67
2022-11-29T02:03:27.616Z,18.13
2022-11-29T02:09:22.246Z,18.70
2022-11-29T02:15:41.103Z,20.20
2022-11-29T02:21:45.735Z,20.80
2022-11-29T02:28:08.868Z,20.80
2022-11-29T02:34:16.392Z,21.30
2022-11-29T02:40:29.800Z,21.40
2022-11-29T02:46:54.413Z,19.73
2022-11-29T02:53:01.078Z,20.93
2022-11-29T02:59:04.811Z,20.70
2022-11-29T03:05:04.864Z,22.97
2022-11-29T03:11:08.258Z,21.73
2022-11-29T03:17:09.216Z,21.90
2022-11-29T03:23:15.205Z,20.87
2022-11-29T03:29:17.522Z,20.23
2022-11-29T03:35:16.318Z,20.30
2022-11-29T03:41:20.543Z,22.47
2022-11-29T03:47:19.833Z,20.90
2022-11-29T03:53:18.574Z,21.17
2022-11-29T03:59:29.035Z,20.97
2022-11-29T04:05:55.010Z,20.93
2022-11-29T04:12:07.590Z,22.47
2022-11-29T04:18:48.805Z,21.50
2022-11-29T04:25:18.133Z,22.20
2022-11-29T04:31:24.460Z,20.80
2022-11-29T04:37:48.480Z,21.57
2022-11-29T04:43:55.947Z,22.63
2022-11-29T04:50:14.491Z,20.63
2022-11-29T04:56:14.772Z,21.87
2022-11-29T05:02:16.778Z,19.80
2022-11-29T05:08:29.305Z,21.40
2022-11-29T05:14:32.915Z,22.97
2022-11-29T05:20:40.543Z,21.67
2022-11-29T05:26:43.996Z,20.80
2022-11-29T05:32:46.733Z,22.77
2022-11-29T05:38:52.140Z,22.37
2022-11-29T05:44:51.930Z,21.43
2022-11-29T05:50:52.292Z,21.60
2022-11-29T05:56:52.911Z,22.03
2022-11-29T06:02:57.565Z,23.83
2022-11-29T06:08:58.791Z,23.40
2022-11-29T06:15:15.647Z,24.23
2022-11-29T06:21:24.411Z,22.37
2022-11-29T06:27:30.519Z,24.50
2022-11-29T06:33:28.434Z,24.33
2022-11-29T06:39:23.884Z,21.87
2022-11-29T06:45:18.310Z,21.63
2022-11-29T06:51:18.300Z,22.37
2022-11-29T06:57:21.434Z,24.00
2022-11-29T07:03:39.677Z,22.47
2022-11-29T07:09:36.058Z,23.90
2022-11-29T07:15:31.820Z,23.10
2022-11-29T07:21:35.462Z,23.57
2022-11-29T07:27:37.415Z,23.70
2022-11-29T07:33:42.834Z,23.97
2022-11-29T07:39:47.423Z,25.00
2022-11-29T07:45:41.442Z,22.80
2022-11-29T07:51:36.328Z,22.77
2022-11-29T07:57:30.818Z,23.43
2022-11-29T08:03:24.238Z,20.50
2022-11-29T08:09:18.825Z,22.97
2022-11-29T08:15:12.613Z,21.70
2022-11-29T08:21:07.490Z,22.83
2022-11-29T08:27:02.305Z,21.53
2022-11-29T08:32:55.730Z,22.00
2022-11-29T08:38:50.999Z,21.70
2022-11-29T08:44:48.186Z,23.30
2022-11-29T08:50:41.244Z,22.07
2022-11-29T08:57:23.574Z,24.77
2022-11-29T09:02:50.465Z,23.20
2022-11-29T09:08:44.352Z,21.13
2022-11-29T09:14:37.763Z,23.57
2022-11-29T09:20:32.713Z,24.77
2022-11-29T09:26:27.682Z,24.07
2022-11-29T09:32:22.218Z,25.63
2022-11-29T09:38:17.056Z,23.40
2022-11-29T09:44:18.319Z,22.60
2022-11-29T09:50:24.728Z,26.90
2022-11-29T09:56:26.685Z,24.97
2022-11-29T10:02:26.629Z,25.53
2022-11-29T10:08:26.010Z,27.60
2022-11-29T10:14:25.764Z,25.17
2022-11-29T10:20:21.841Z,26.00
2022-11-29T10:26:15.116Z,25.43
2022-11-29T10:32:15.357Z,25.47
2022-11-29T10:44:27.537Z,23.83
2022-11-29T10:50:25.302Z,24.33
2022-11-29T10:56:24.534Z,25.23
2022-11-29T11:02:20.700Z,25.33
2022-11-29T11:08:19.804Z,27.57
2022-11-29T11:14:21.865Z,25.43
2022-11-29T11:20:23.220Z,26.00
2022-11-29T11:26:17.789Z,24.67
2022-11-29T11:32:18.534Z,24.67
2022-11-29T11:38:18.550Z,23.90
2022-11-29T11:44:58.553Z,25.50
2022-11-29T11:50:52.677Z,23.97
2022-11-29T11:56:46.254Z,23.80
2022-11-29T12:02:42.469Z,23.83
2022-11-29T12:08:38.136Z,25.43
2022-11-29T12:14:39.627Z,25.50
2022-11-29T12:20:41.073Z,25.10
2022-11-29T12:26:58.257Z,26.40
2022-11-29T12:33:07.107Z,25.57
2022-11-29T12:39:14.961Z,26.70
2022-11-29T12:45:23.913Z,25.47
2022-11-29T12:51:23.716Z,27.63
2022-11-29T12:57:29.221Z,27.03
2022-11-29T13:03:30.212Z,25.83
2022-11-29T13:09:43.291Z,24.40
2022-11-29T13:15:43.807Z,24.03
2022-11-29T13:21:45.446Z,24.70
2022-11-29T13:27:43.315Z,26.10
2022-11-29T13:33:49.239Z,25.07
2022-11-29T13:39:58.541Z,26.30
2022-11-29T13:45:58.931Z,27.57
2022-11-29T13:52:06.044Z,26.87
2022-11-29T13:58:22.508Z,27.50
2022-11-29T14:04:29.393Z,28.47
2022-11-29T14:10:29.162Z,25.83
2022-11-29T14:16:31.627Z,28.90
2022-11-29T14:22:25.158Z,26.90
2022-11-29T14:28:33.185Z,26.87
2022-11-29T14:34:44.017Z,25.47
2022-11-29T14:40:49.148Z,27.30
2022-11-29T14:46:44.283Z,24.57
2022-11-29T14:52:40.272Z,24.50
2022-11-29T14:58:33.860Z,26.60
2022-11-29T15:04:29.274Z,27.00
2022-11-29T15:10:26.871Z,24.97
2022-11-29T15:22:49.552Z,24.97
2022-11-29T15:28:42.842Z,24.10
2022-11-29T15:34:41.001Z,23.93
2022-11-29T15:40:37.622Z,24.10
2022-11-29T15:46:33.107Z,27.17
2022-11-29T15:52:29.705Z,25.10
2022-11-29T15:58:25.878Z,27.67
2022-11-29T16:04:21.287Z,25.77
2022-11-29T16:10:18.038Z,26.20
2022-11-29T16:16:17.829Z,29.13
2022-11-29T16:22:17.629Z,26.73
2022-11-29T16:28:13.657Z,24.60
2022-11-29T16:34:23.015Z,26.30
2022-11-29T16:40:24.692Z,23.50
2022-11-29T16:46:37.754Z,25.10
2022-11-29T16:52:34.450Z,25.00
2022-11-29T16:58:28.855Z,22.20
2022-11-29T17:04:23.651Z,25.57
2022-11-29T17:10:23.204Z,27.40
2022-11-29T17:16:18.360Z,25.77
2022-11-29T17:22:12.549Z,25.67
2022-11-29T17:28:07.861Z,25.30
2022-11-29T17:34:03.309Z,26.73
2022-11-29T17:39:57.380Z,26.90
2022-11-29T17:45:52.442Z,28.63
2022-11-29T17:51:53.934Z,28.33
2022-11-29T17:57:48.157Z,26.03
2022-11-29T18:03:44.220Z,30.13
2022-11-29T18:09:37.892Z,29.00
2022-11-29T18:15:33.617Z,28.60
2022-11-29T18:21:29.105Z,27.53
2022-11-29T18:27:22.903Z,27.70
2022-11-29T18:33:16.513Z,27.47
2022-11-29T18:39:13.876Z,28.77
2022-11-29T18:45:09.073Z,27.53
2022-11-29T18:51:03.744Z,28.50
2022-11-29T18:56:59.255Z,29.67
2022-11-29T19:02:53.182Z,29.37
2022-11-29T19:08:47.127Z,27.77
2022-11-29T19:14:48.138Z,27.17
2022-11-29T19:20:43.493Z,28.27
2022-11-29T19:26:37.062Z,32.67
2022-11-29T19:32:32.036Z,29.00
2022-11-29T19:38:25.792Z,28.40
2022-11-29T19:44:19.350Z,30.70
2022-11-29T19:50:14.428Z,27.77
2022-11-29T19:56:09.494Z,26.70
2022-11-29T20:02:03.204Z,30.07
2022-11-29T20:07:58.231Z,29.43
2022-11-29T20:13:55.338Z,33.10
2022-11-29T20:19:49.354Z,29.93
2022-11-29T20:25:49.709Z,28.40
2022-11-29T20:31:50.807Z,28.00
2022-11-29T20:38:13.483Z,29.80
2022-11-29T20:44:12.439Z,31.77
2022-11-29T20:50:07.075Z,28.20
2022-11-29T20:56:01.401Z,30.40
2022-11-29T21:01:57.949Z,28.97
2022-11-29T21:07:51.567Z,31.23
2022-11-29T21:13:45.964Z,29.73
2022-11-29T21:19:41.495Z,30.17
2022-11-29T21:25:44.195Z,29.83
2022-11-29T21:31:38.624Z,30.80
2022-11-29T21:37:33.150Z,30.13
2022-11-29T21:43:57.834Z,29.80
2022-11-29T21:49:40.888Z,28.27
2022-11-29T21:55:35.774Z,32.33
2022-11-29T22:01:30.061Z,31.27
2022-11-29T22:07:23.797Z,29.40
2022-11-29T22:13:18.792Z,28.20
2022-11-29T22:19:13.753Z,31.50
2022-11-29T22:25:07.629Z,30.17
2022-11-29T22:31:08.332Z,30.37
2022-11-29T22:37:01.523Z,27.23
2022-11-29T22:42:55.237Z,26.63
2022-11-29T22:48:53.278Z,29.57
2022-11-29T22:54:47.244Z,30.43
2022-11-29T23:00:44.249Z,30.93
2022-11-29T23:06:41.240Z,30.33
2022-11-29T23:12:35.118Z,26.57
2022-11-29T23:18:29.198Z,29.70
2022-11-29T23:24:24.181Z,27.87
2022-11-29T23:30:17.872Z,27.40
2022-11-29T23:36:13.075Z,27.47
2022-11-29T23:42:08.125Z,27.93
2022-11-29T23:48:01.659Z,25.80
2022-11-29T23:53:56.152Z,29.70
2022-11-29T23:59:51.139Z,25.27
